sensor_id;sensor_type;location;lat;lon;timestamp;P1;durP1;ratioP1;P2;durP2;ratioP2
2638;SDS011;1329;51.384;7.122;2022-07-19T00:00:07;2.80;;;1.85;;
2638;SDS011;1329;51.384;7.122;2022-07-19T00:02:42;2.45;;;2.13;;
2638;SDS011;1329;51.384;7.122;2022-07-19T00:05:09;1.92;;;1.77;;
2638;SDS011;1329;51.384;7.122;2022-07-19T00:07:38;2.10;;;1.90;;
2638;SDS011;1329;51.384;7.122;2022-07-19T00:10:08;3.22;;;2.05;;
2638;SDS011;1329;51.384;7.122;2022-07-19T00:12:39;2.50;;;2.10;;
2638;SDS011;1329;51.384;7.122;2022-07-19T00:15:13;2.05;;;1.90;;
2638;SDS011;1329;51.384;7.122;2022-07-19T00:17:43;2.53;;;1.90;;
2638;SDS011;1329;51.384;7.122;2022-07-19T00:20:16;1.88;;;1.75;;
2638;SDS011;1329;51.384;7.122;2022-07-19T00:22:45;2.38;;;1.77;;
2638;SDS011;1329;51.384;7.122;2022-07-19T00:25:13;2.20;;;2.00;;
2638;SDS011;1329;51.384;7.122;2022-07-19T00:27:41;1.90;;;1.80;;
2638;SDS011;1329;51.384;7.122;2022-07-19T00:30:09;3.25;;;2.00;;
2638;SDS011;1329;51.384;7.122;2022-07-19T00:32:37;2.15;;;1.80;;
2638;SDS011;1329;51.384;7.122;2022-07-19T00:35:06;2.42;;;1.85;;
2638;SDS011;1329;51.384;7.122;2022-07-19T00:37:34;2.10;;;1.90;;
2638;SDS011;1329;51.384;7.122;2022-07-19T00:40:02;1.90;;;1.80;;
2638;SDS011;1329;51.384;7.122;2022-07-19T00:42:30;3.65;;;1.80;;
2638;SDS011;1329;51.384;7.122;2022-07-19T00:44:57;2.72;;;2.00;;
2638;SDS011;1329;51.384;7.122;2022-07-19T00:47:25;2.33;;;1.85;;
2638;SDS011;1329;51.384;7.122;2022-07-19T00:49:53;2.67;;;1.73;;
2638;SDS011;1329;51.384;7.122;2022-07-19T00:52:22;2.88;;;2.00;;
2638;SDS011;1329;51.384;7.122;2022-07-19T00:54:54;2.47;;;2.13;;
2638;SDS011;1329;51.384;7.122;2022-07-19T00:57:23;2.88;;;2.00;;
2638;SDS011;1329;51.384;7.122;2022-07-19T00:59:50;2.20;;;2.00;;
2638;SDS011;1329;51.384;7.122;2022-07-19T01:02:20;1.90;;;1.70;;
2638;SDS011;1329;51.384;7.122;2022-07-19T01:04:47;2.50;;;2.13;;
2638;SDS011;1329;51.384;7.122;2022-07-19T01:07:14;2.45;;;1.88;;
2638;SDS011;1329;51.384;7.122;2022-07-19T01:09:43;2.97;;;2.05;;
2638;SDS011;1329;51.384;7.122;2022-07-19T01:12:10;2.10;;;1.90;;
2638;SDS011;1329;51.384;7.122;2022-07-19T01:14:38;2.42;;;1.95;;
2638;SDS011;1329;51.384;7.122;2022-07-19T01:17:06;1.92;;;1.83;;
2638;SDS011;1329;51.384;7.122;2022-07-19T01:19:33;2.28;;;2.00;;
2638;SDS011;1329;51.384;7.122;2022-07-19T01:22:04;2.45;;;1.90;;
2638;SDS011;1329;51.384;7.122;2022-07-19T01:24:31;2.03;;;1.83;;
2638;SDS011;1329;51.384;7.122;2022-07-19T01:26:59;2.25;;;2.05;;
2638;SDS011;1329;51.384;7.122;2022-07-19T01:29:28;1.80;;;1.70;;
2638;SDS011;1329;51.384;7.122;2022-07-19T01:31:55;2.47;;;1.90;;
2638;SDS011;1329;51.384;7.122;2022-07-19T01:34:22;1.98;;;1.77;;
2638;SDS011;1329;51.384;7.122;2022-07-19T01:36:50;2.10;;;1.90;;
2638;SDS011;1329;51.384;7.122;2022-07-19T01:39:18;2.00;;;1.90;;
2638;SDS011;1329;51.384;7.122;2022-07-19T01:41:46;3.08;;;2.20;;
2638;SDS011;1329;51.384;7.122;2022-07-19T01:44:13;2.20;;;2.00;;
2638;SDS011;1329;51.384;7.122;2022-07-19T01:46:41;2.10;;;1.88;;
2638;SDS011;1329;51.384;7.122;2022-07-19T01:49:08;2.33;;;2.00;;
2638;SDS011;1329;51.384;7.122;2022-07-19T01:51:35;2.53;;;2.17;;
2638;SDS011;1329;51.384;7.122;2022-07-19T01:54:03;1.88;;;1.75;;
2638;SDS011;1329;51.384;7.122;2022-07-19T01:56:31;3.63;;;2.13;;
2638;SDS011;1329;51.384;7.122;2022-07-19T01:58:58;2.25;;;1.88;;
2638;SDS011;1329;51.384;7.122;2022-07-19T02:01:26;3.25;;;2.30;;
2638;SDS011;1329;51.384;7.122;2022-07-19T02:03:53;3.65;;;2.20;;
2638;SDS011;1329;51.384;7.122;2022-07-19T02:06:20;3.25;;;2.10;;
2638;SDS011;1329;51.384;7.122;2022-07-19T02:08:48;2.53;;;2.13;;
2638;SDS011;1329;51.384;7.122;2022-07-19T02:11:15;2.63;;;2.15;;
2638;SDS011;1329;51.384;7.122;2022-07-19T02:14:02;2.40;;;2.10;;
2638;SDS011;1329;51.384;7.122;2022-07-19T02:16:29;2.15;;;1.88;;
2638;SDS011;1329;51.384;7.122;2022-07-19T02:18:57;3.00;;;2.20;;
2638;SDS011;1329;51.384;7.122;2022-07-19T02:21:24;2.40;;;1.90;;
2638;SDS011;1329;51.384;7.122;2022-07-19T02:23:51;2.22;;;2.03;;
2638;SDS011;1329;51.384;7.122;2022-07-19T02:26:19;2.30;;;2.10;;
2638;SDS011;1329;51.384;7.122;2022-07-19T02:28:46;2.40;;;1.98;;
2638;SDS011;1329;51.384;7.122;2022-07-19T02:31:15;2.85;;;2.00;;
2638;SDS011;1329;51.384;7.122;2022-07-19T02:33:43;2.97;;;2.08;;
2638;SDS011;1329;51.384;7.122;2022-07-19T02:36:10;2.30;;;2.10;;
2638;SDS011;1329;51.384;7.122;2022-07-19T02:38:38;3.40;;;2.30;;
2638;SDS011;1329;51.384;7.122;2022-07-19T02:41:05;2.95;;;2.28;;
2638;SDS011;1329;51.384;7.122;2022-07-19T02:43:33;2.15;;;2.05;;
2638;SDS011;1329;51.384;7.122;2022-07-19T02:46:03;2.78;;;2.20;;
2638;SDS011;1329;51.384;7.122;2022-07-19T02:48:32;2.97;;;2.33;;
2638;SDS011;1329;51.384;7.122;2022-07-19T02:50:59;2.92;;;2.30;;
2638;SDS011;1329;51.384;7.122;2022-07-19T02:53:26;2.65;;;2.17;;
2638;SDS011;1329;51.384;7.122;2022-07-19T02:55:54;2.45;;;2.20;;
2638;SDS011;1329;51.384;7.122;2022-07-19T02:58:21;2.03;;;1.83;;
2638;SDS011;1329;51.384;7.122;2022-07-19T03:00:48;2.50;;;2.08;;
2638;SDS011;1329;51.384;7.122;2022-07-19T03:03:15;2.25;;;2.05;;
2638;SDS011;1329;51.384;7.122;2022-07-19T03:06:02;2.78;;;2.10;;
2638;SDS011;1329;51.384;7.122;2022-07-19T03:08:29;2.30;;;2.00;;
2638;SDS011;1329;51.384;7.122;2022-07-19T03:10:57;3.08;;;2.40;;
2638;SDS011;1329;51.384;7.122;2022-07-19T03:13:24;3.42;;;2.05;;
2638;SDS011;1329;51.384;7.122;2022-07-19T03:15:51;2.45;;;2.25;;
2638;SDS011;1329;51.384;7.122;2022-07-19T03:18:18;2.72;;;2.22;;
2638;SDS011;1329;51.384;7.122;2022-07-19T03:20:46;3.22;;;2.63;;
2638;SDS011;1329;51.384;7.122;2022-07-19T03:23:15;3.30;;;3.00;;
2638;SDS011;1329;51.384;7.122;2022-07-19T03:25:42;2.80;;;2.50;;
2638;SDS011;1329;51.384;7.122;2022-07-19T03:28:10;3.38;;;2.40;;
2638;SDS011;1329;51.384;7.122;2022-07-19T03:30:40;3.30;;;2.50;;
2638;SDS011;1329;51.384;7.122;2022-07-19T03:33:09;3.72;;;2.67;;
2638;SDS011;1329;51.384;7.122;2022-07-19T03:35:40;3.20;;;2.80;;
2638;SDS011;1329;51.384;7.122;2022-07-19T03:38:09;4.03;;;2.88;;
2638;SDS011;1329;51.384;7.122;2022-07-19T03:40:39;4.65;;;2.63;;
2638;SDS011;1329;51.384;7.122;2022-07-19T03:43:08;2.88;;;2.58;;
2638;SDS011;1329;51.384;7.122;2022-07-19T03:45:36;2.78;;;2.58;;
2638;SDS011;1329;51.384;7.122;2022-07-19T03:48:03;2.70;;;2.50;;
2638;SDS011;1329;51.384;7.122;2022-07-19T03:50:31;3.60;;;2.80;;
2638;SDS011;1329;51.384;7.122;2022-07-19T03:53:01;3.13;;;2.40;;
2638;SDS011;1329;51.384;7.122;2022-07-19T03:55:29;3.22;;;2.92;;
2638;SDS011;1329;51.384;7.122;2022-07-19T03:57:57;2.88;;;2.45;;
2638;SDS011;1329;51.384;7.122;2022-07-19T04:00:25;2.83;;;2.50;;
2638;SDS011;1329;51.384;7.122;2022-07-19T04:02:52;2.80;;;2.60;;
2638;SDS011;1329;51.384;7.122;2022-07-19T04:05:20;3.05;;;2.75;;
2638;SDS011;1329;51.384;7.122;2022-07-19T04:07:48;2.75;;;2.55;;
2638;SDS011;1329;51.384;7.122;2022-07-19T04:10:15;2.95;;;2.65;;
2638;SDS011;1329;51.384;7.122;2022-07-19T04:12:44;2.78;;;2.53;;
2638;SDS011;1329;51.384;7.122;2022-07-19T04:15:13;2.80;;;2.60;;
2638;SDS011;1329;51.384;7.122;2022-07-19T04:17:41;2.50;;;2.30;;
2638;SDS011;1329;51.384;7.122;2022-07-19T04:20:09;2.95;;;2.65;;
2638;SDS011;1329;51.384;7.122;2022-07-19T04:22:37;3.00;;;2.67;;
2638;SDS011;1329;51.384;7.122;2022-07-19T04:25:05;2.78;;;2.45;;
2638;SDS011;1329;51.384;7.122;2022-07-19T04:27:34;2.55;;;2.35;;
2638;SDS011;1329;51.384;7.122;2022-07-19T04:30:02;3.65;;;2.60;;
2638;SDS011;1329;51.384;7.122;2022-07-19T04:32:32;3.28;;;2.60;;
2638;SDS011;1329;51.384;7.122;2022-07-19T04:34:59;2.53;;;2.33;;
2638;SDS011;1329;51.384;7.122;2022-07-19T04:37:27;2.92;;;2.67;;
2638;SDS011;1329;51.384;7.122;2022-07-19T04:39:55;2.60;;;2.40;;
2638;SDS011;1329;51.384;7.122;2022-07-19T04:42:22;3.17;;;2.20;;
2638;SDS011;1329;51.384;7.122;2022-07-19T04:44:50;2.78;;;2.20;;
2638;SDS011;1329;51.384;7.122;2022-07-19T04:47:18;2.25;;;2.08;;
2638;SDS011;1329;51.384;7.122;2022-07-19T04:49:47;2.72;;;2.10;;
2638;SDS011;1329;51.384;7.122;2022-07-19T04:52:15;2.28;;;2.08;;
2638;SDS011;1329;51.384;7.122;2022-07-19T04:54:45;2.47;;;2.17;;
2638;SDS011;1329;51.384;7.122;2022-07-19T04:57:14;2.20;;;2.00;;
2638;SDS011;1329;51.384;7.122;2022-07-19T04:59:41;2.42;;;2.22;;
2638;SDS011;1329;51.384;7.122;2022-07-19T05:02:11;2.53;;;2.05;;
2638;SDS011;1329;51.384;7.122;2022-07-19T05:04:39;2.00;;;1.80;;
2638;SDS011;1329;51.384;7.122;2022-07-19T05:07:08;2.55;;;2.08;;
2638;SDS011;1329;51.384;7.122;2022-07-19T05:09:35;2.20;;;2.00;;
2638;SDS011;1329;51.384;7.122;2022-07-19T05:12:06;1.98;;;1.88;;
2638;SDS011;1329;51.384;7.122;2022-07-19T05:14:34;2.30;;;1.98;;
2638;SDS011;1329;51.384;7.122;2022-07-19T05:17:05;2.78;;;2.00;;
2638;SDS011;1329;51.384;7.122;2022-07-19T05:19:34;2.05;;;1.85;;
2638;SDS011;1329;51.384;7.122;2022-07-19T05:22:02;2.88;;;2.00;;
2638;SDS011;1329;51.384;7.122;2022-07-19T05:24:33;2.30;;;1.85;;
2638;SDS011;1329;51.384;7.122;2022-07-19T05:27:00;2.42;;;1.60;;
2638;SDS011;1329;51.384;7.122;2022-07-19T05:29:28;2.33;;;1.90;;
2638;SDS011;1329;51.384;7.122;2022-07-19T05:31:55;1.70;;;1.60;;
2638;SDS011;1329;51.384;7.122;2022-07-19T05:34:26;3.65;;;1.90;;
2638;SDS011;1329;51.384;7.122;2022-07-19T05:36:53;1.73;;;1.63;;
2638;SDS011;1329;51.384;7.122;2022-07-19T05:39:21;2.20;;;1.95;;
2638;SDS011;1329;51.384;7.122;2022-07-19T05:41:50;2.53;;;1.63;;
2638;SDS011;1329;51.384;7.122;2022-07-19T05:44:18;1.70;;;1.60;;
2638;SDS011;1329;51.384;7.122;2022-07-19T05:46:48;2.25;;;1.70;;
2638;SDS011;1329;51.384;7.122;2022-07-19T05:49:16;1.90;;;1.70;;
2638;SDS011;1329;51.384;7.122;2022-07-19T05:51:45;3.20;;;1.63;;
2638;SDS011;1329;51.384;7.122;2022-07-19T05:54:18;2.20;;;1.90;;
2638;SDS011;1329;51.384;7.122;2022-07-19T05:56:46;1.75;;;1.65;;
2638;SDS011;1329;51.384;7.122;2022-07-19T05:59:15;2.28;;;1.95;;
2638;SDS011;1329;51.384;7.122;2022-07-19T06:01:45;3.65;;;1.77;;
2638;SDS011;1329;51.384;7.122;2022-07-19T06:04:16;2.00;;;1.55;;
2638;SDS011;1329;51.384;7.122;2022-07-19T06:06:44;1.60;;;1.50;;
2638;SDS011;1329;51.384;7.122;2022-07-19T06:09:14;1.60;;;1.50;;
2638;SDS011;1329;51.384;7.122;2022-07-19T06:11:44;1.58;;;1.40;;
2638;SDS011;1329;51.384;7.122;2022-07-19T06:14:12;1.55;;;1.40;;
2638;SDS011;1329;51.384;7.122;2022-07-19T06:16:41;2.25;;;1.60;;
2638;SDS011;1329;51.384;7.122;2022-07-19T06:19:09;3.22;;;1.77;;
2638;SDS011;1329;51.384;7.122;2022-07-19T06:21:39;2.58;;;1.52;;
2638;SDS011;1329;51.384;7.122;2022-07-19T06:24:06;1.88;;;1.50;;
2638;SDS011;1329;51.384;7.122;2022-07-19T06:26:34;1.75;;;1.65;;
2638;SDS011;1329;51.384;7.122;2022-07-19T06:29:01;2.20;;;1.70;;
2638;SDS011;1329;51.384;7.122;2022-07-19T06:31:31;1.75;;;1.45;;
2638;SDS011;1329;51.384;7.122;2022-07-19T06:33:59;2.30;;;1.30;;
2638;SDS011;1329;51.384;7.122;2022-07-19T06:36:27;1.65;;;1.42;;
2638;SDS011;1329;51.384;7.122;2022-07-19T06:38:55;2.58;;;1.80;;
2638;SDS011;1329;51.384;7.122;2022-07-19T06:41:24;1.75;;;1.60;;
2638;SDS011;1329;51.384;7.122;2022-07-19T06:43:55;2.30;;;1.65;;
2638;SDS011;1329;51.384;7.122;2022-07-19T06:46:23;2.63;;;1.48;;
2638;SDS011;1329;51.384;7.122;2022-07-19T06:48:52;2.13;;;1.80;;
2638;SDS011;1329;51.384;7.122;2022-07-19T06:51:20;2.72;;;1.75;;
2638;SDS011;1329;51.384;7.122;2022-07-19T06:53:48;3.00;;;1.73;;
2638;SDS011;1329;51.384;7.122;2022-07-19T06:56:18;2.65;;;1.65;;
2638;SDS011;1329;51.384;7.122;2022-07-19T06:58:48;1.70;;;1.60;;
2638;SDS011;1329;51.384;7.122;2022-07-19T07:01:15;2.60;;;1.60;;
2638;SDS011;1329;51.384;7.122;2022-07-19T07:03:44;1.90;;;1.70;;
2638;SDS011;1329;51.384;7.122;2022-07-19T07:06:14;2.10;;;1.63;;
2638;SDS011;1329;51.384;7.122;2022-07-19T07:08:45;2.88;;;1.70;;
2638;SDS011;1329;51.384;7.122;2022-07-19T07:11:16;3.42;;;2.08;;
2638;SDS011;1329;51.384;7.122;2022-07-19T07:13:54;2.97;;;1.70;;
2638;SDS011;1329;51.384;7.122;2022-07-19T07:16:29;1.90;;;1.60;;
2638;SDS011;1329;51.384;7.122;2022-07-19T07:18:59;1.83;;;1.55;;
2638;SDS011;1329;51.384;7.122;2022-07-19T07:21:29;1.92;;;1.63;;
2638;SDS011;1329;51.384;7.122;2022-07-19T07:24:01;1.95;;;1.70;;
2638;SDS011;1329;51.384;7.122;2022-07-19T07:26:30;2.60;;;1.80;;
2638;SDS011;1329;51.384;7.122;2022-07-19T07:28:59;1.98;;;1.80;;
2638;SDS011;1329;51.384;7.122;2022-07-19T07:31:28;2.53;;;1.95;;
2638;SDS011;1329;51.384;7.122;2022-07-19T07:33:56;2.05;;;1.60;;
2638;SDS011;1329;51.384;7.122;2022-07-19T07:36:40;4.43;;;2.00;;
2638;SDS011;1329;51.384;7.122;2022-07-19T07:39:12;2.20;;;1.65;;
2638;SDS011;1329;51.384;7.122;2022-07-19T07:41:41;2.10;;;1.90;;
2638;SDS011;1329;51.384;7.122;2022-07-19T07:44:16;2.58;;;1.83;;
2638;SDS011;1329;51.384;7.122;2022-07-19T07:46:52;2.10;;;1.80;;
2638;SDS011;1329;51.384;7.122;2022-07-19T07:49:32;2.13;;;1.90;;
2638;SDS011;1329;51.384;7.122;2022-07-19T07:52:11;2.65;;;1.98;;
2638;SDS011;1329;51.384;7.122;2022-07-19T07:54:39;5.32;;;2.10;;
2638;SDS011;1329;51.384;7.122;2022-07-19T07:57:31;2.67;;;1.80;;
2638;SDS011;1329;51.384;7.122;2022-07-19T08:00:06;3.25;;;1.70;;
2638;SDS011;1329;51.384;7.122;2022-07-19T08:02:39;1.90;;;1.80;;
2638;SDS011;1329;51.384;7.122;2022-07-19T08:05:13;2.13;;;1.60;;
2638;SDS011;1329;51.384;7.122;2022-07-19T08:07:57;3.58;;;1.73;;
2638;SDS011;1329;51.384;7.122;2022-07-19T08:10:49;2.15;;;1.92;;
2638;SDS011;1329;51.384;7.122;2022-07-19T08:13:39;3.47;;;2.03;;
2638;SDS011;1329;51.384;7.122;2022-07-19T08:16:20;2.65;;;1.90;;
2638;SDS011;1329;51.384;7.122;2022-07-19T08:18:57;3.13;;;2.10;;
2638;SDS011;1329;51.384;7.122;2022-07-19T08:21:35;3.47;;;1.80;;
2638;SDS011;1329;51.384;7.122;2022-07-19T08:24:13;2.10;;;1.90;;
2638;SDS011;1329;51.384;7.122;2022-07-19T08:26:43;2.25;;;1.80;;
2638;SDS011;1329;51.384;7.122;2022-07-19T08:29:37;2.55;;;1.80;;
2638;SDS011;1329;51.384;7.122;2022-07-19T08:32:36;2.20;;;2.00;;
2638;SDS011;1329;51.384;7.122;2022-07-19T08:35:08;2.72;;;2.08;;
2638;SDS011;1329;51.384;7.122;2022-07-19T08:37:42;1.80;;;1.60;;
2638;SDS011;1329;51.384;7.122;2022-07-19T08:40:16;2.03;;;1.70;;
2638;SDS011;1329;51.384;7.122;2022-07-19T08:42:47;1.85;;;1.70;;
2638;SDS011;1329;51.384;7.122;2022-07-19T08:45:32;4.38;;;2.00;;
2638;SDS011;1329;51.384;7.122;2022-07-19T08:48:16;2.67;;;1.70;;
2638;SDS011;1329;51.384;7.122;2022-07-19T08:51:19;2.42;;;1.67;;
2638;SDS011;1329;51.384;7.122;2022-07-19T08:54:05;3.33;;;1.90;;
2638;SDS011;1329;51.384;7.122;2022-07-19T08:56:40;1.90;;;1.75;;
2638;SDS011;1329;51.384;7.122;2022-07-19T08:59:35;2.10;;;1.90;;
2638;SDS011;1329;51.384;7.122;2022-07-19T09:02:14;1.77;;;1.55;;
2638;SDS011;1329;51.384;7.122;2022-07-19T09:05:05;1.98;;;1.60;;
2638;SDS011;1329;51.384;7.122;2022-07-19T09:07:41;2.22;;;1.70;;
2638;SDS011;1329;51.384;7.122;2022-07-19T09:10:48;2.50;;;1.73;;
2638;SDS011;1329;51.384;7.122;2022-07-19T09:14:01;1.60;;;1.50;;
2638;SDS011;1329;51.384;7.122;2022-07-19T09:17:11;2.15;;;1.73;;
2638;SDS011;1329;51.384;7.122;2022-07-19T09:20:01;2.85;;;1.67;;
2638;SDS011;1329;51.384;7.122;2022-07-19T09:22:55;1.92;;;1.65;;
2638;SDS011;1329;51.384;7.122;2022-07-19T09:25:40;1.80;;;1.70;;
2638;SDS011;1329;51.384;7.122;2022-07-19T09:28:37;3.20;;;1.83;;
2638;SDS011;1329;51.384;7.122;2022-07-19T09:34:56;1.50;;;1.40;;
2638;SDS011;1329;51.384;7.122;2022-07-19T09:44:02;2.75;;;1.88;;
2638;SDS011;1329;51.384;7.122;2022-07-19T09:50:49;1.80;;;1.60;;
2638;SDS011;1329;51.384;7.122;2022-07-19T09:53:38;1.77;;;1.60;;
2638;SDS011;1329;51.384;7.122;2022-07-19T09:56:18;1.90;;;1.80;;
2638;SDS011;1329;51.384;7.122;2022-07-19T09:59:07;2.80;;;1.67;;
2638;SDS011;1329;51.384;7.122;2022-07-19T10:01:56;3.15;;;2.15;;
2638;SDS011;1329;51.384;7.122;2022-07-19T10:04:43;1.95;;;1.70;;
2638;SDS011;1329;51.384;7.122;2022-07-19T10:07:28;1.90;;;1.67;;
2638;SDS011;1329;51.384;7.122;2022-07-19T10:10:24;2.53;;;1.75;;
2638;SDS011;1329;51.384;7.122;2022-07-19T10:13:13;3.10;;;1.83;;
2638;SDS011;1329;51.384;7.122;2022-07-19T10:16:18;2.33;;;1.67;;
2638;SDS011;1329;51.384;7.122;2022-07-19T10:19:18;2.55;;;1.73;;
2638;SDS011;1329;51.384;7.122;2022-07-19T10:22:09;3.72;;;1.73;;
2638;SDS011;1329;51.384;7.122;2022-07-19T10:24:51;2.00;;;1.60;;
2638;SDS011;1329;51.384;7.122;2022-07-19T10:27:43;4.20;;;1.80;;
2638;SDS011;1329;51.384;7.122;2022-07-19T10:30:26;2.05;;;1.40;;
2638;SDS011;1329;51.384;7.122;2022-07-19T10:33:30;1.85;;;1.55;;
2638;SDS011;1329;51.384;7.122;2022-07-19T10:39:27;1.40;;;1.30;;
2638;SDS011;1329;51.384;7.122;2022-07-19T10:42:18;2.35;;;1.33;;
2638;SDS011;1329;51.384;7.122;2022-07-19T10:45:15;2.05;;;1.60;;
2638;SDS011;1329;51.384;7.122;2022-07-19T10:48:07;3.42;;;1.58;;
2638;SDS011;1329;51.384;7.122;2022-07-19T10:51:26;2.20;;;1.50;;
2638;SDS011;1329;51.384;7.122;2022-07-19T10:54:18;2.47;;;1.70;;
2638;SDS011;1329;51.384;7.122;2022-07-19T10:57:09;1.60;;;1.50;;
2638;SDS011;1329;51.384;7.122;2022-07-19T11:00:30;3.88;;;1.60;;
2638;SDS011;1329;51.384;7.122;2022-07-19T11:03:36;1.40;;;1.30;;
2638;SDS011;1329;51.384;7.122;2022-07-19T11:06:21;2.45;;;1.70;;
2638;SDS011;1329;51.384;7.122;2022-07-19T11:09:05;1.58;;;1.40;;
2638;SDS011;1329;51.384;7.122;2022-07-19T11:11:49;3.33;;;1.70;;
2638;SDS011;1329;51.384;7.122;2022-07-19T11:14:45;1.77;;;1.20;;
2638;SDS011;1329;51.384;7.122;2022-07-19T11:17:26;1.50;;;1.40;;
2638;SDS011;1329;51.384;7.122;2022-07-19T11:20:21;2.40;;;1.40;;
2638;SDS011;1329;51.384;7.122;2022-07-19T11:22:54;1.73;;;1.35;;
2638;SDS011;1329;51.384;7.122;2022-07-19T11:29:24;2.47;;;1.48;;
2638;SDS011;1329;51.384;7.122;2022-07-19T11:32:36;1.50;;;1.40;;
2638;SDS011;1329;51.384;7.122;2022-07-19T11:35:30;2.20;;;1.30;;
2638;SDS011;1329;51.384;7.122;2022-07-19T11:38:38;1.58;;;1.10;;
2638;SDS011;1329;51.384;7.122;2022-07-19T11:41:39;1.67;;;1.30;;
2638;SDS011;1329;51.384;7.122;2022-07-19T11:44:47;2.28;;;1.45;;
2638;SDS011;1329;51.384;7.122;2022-07-19T11:48:06;1.48;;;1.38;;
2638;SDS011;1329;51.384;7.122;2022-07-19T11:51:06;1.58;;;1.48;;
2638;SDS011;1329;51.384;7.122;2022-07-19T11:54:08;1.73;;;1.30;;
2638;SDS011;1329;51.384;7.122;2022-07-19T11:56:53;1.98;;;1.40;;
2638;SDS011;1329;51.384;7.122;2022-07-19T11:59:41;2.25;;;1.50;;
2638;SDS011;1329;51.384;7.122;2022-07-19T12:05:37;2.35;;;1.65;;
2638;SDS011;1329;51.384;7.122;2022-07-19T12:12:41;2.63;;;1.50;;
2638;SDS011;1329;51.384;7.122;2022-07-19T12:15:32;3.20;;;1.60;;
2638;SDS011;1329;51.384;7.122;2022-07-19T12:18:48;1.70;;;1.60;;
2638;SDS011;1329;51.384;7.122;2022-07-19T12:24:23;2.20;;;1.60;;
2638;SDS011;1329;51.384;7.122;2022-07-19T12:27:13;1.73;;;1.48;;
2638;SDS011;1329;51.384;7.122;2022-07-19T12:30:17;1.95;;;1.60;;
2638;SDS011;1329;51.384;7.122;2022-07-19T12:33:46;1.50;;;1.40;;
2638;SDS011;1329;51.384;7.122;2022-07-19T12:36:53;1.77;;;1.58;;
2638;SDS011;1329;51.384;7.122;2022-07-19T12:40:18;2.40;;;1.55;;
2638;SDS011;1329;51.384;7.122;2022-07-19T12:43:11;2.10;;;1.52;;
2638;SDS011;1329;51.384;7.122;2022-07-19T12:46:24;1.73;;;1.58;;
2638;SDS011;1329;51.384;7.122;2022-07-19T12:52:45;1.45;;;1.35;;
2638;SDS011;1329;51.384;7.122;2022-07-19T12:56:02;2.13;;;1.70;;
2638;SDS011;1329;51.384;7.122;2022-07-19T12:59:27;3.22;;;1.67;;
2638;SDS011;1329;51.384;7.122;2022-07-19T13:02:34;1.60;;;1.50;;
2638;SDS011;1329;51.384;7.122;2022-07-19T13:05:38;1.95;;;1.70;;
2638;SDS011;1329;51.384;7.122;2022-07-19T13:08:55;1.70;;;1.60;;
2638;SDS011;1329;51.384;7.122;2022-07-19T13:12:29;2.55;;;1.52;;
2638;SDS011;1329;51.384;7.122;2022-07-19T13:15:19;2.50;;;1.67;;
2638;SDS011;1329;51.384;7.122;2022-07-19T13:21:52;3.58;;;1.75;;
2638;SDS011;1329;51.384;7.122;2022-07-19T13:29:04;1.90;;;1.58;;
2638;SDS011;1329;51.384;7.122;2022-07-19T13:38:45;2.83;;;1.40;;
2638;SDS011;1329;51.384;7.122;2022-07-19T13:41:57;1.60;;;1.50;;
2638;SDS011;1329;51.384;7.122;2022-07-19T13:45:06;1.73;;;1.60;;
2638;SDS011;1329;51.384;7.122;2022-07-19T13:48:34;1.77;;;1.63;;
2638;SDS011;1329;51.384;7.122;2022-07-19T13:51:50;2.30;;;1.60;;
2638;SDS011;1329;51.384;7.122;2022-07-19T13:54:32;2.35;;;1.73;;
2638;SDS011;1329;51.384;7.122;2022-07-19T13:57:53;4.10;;;1.40;;
2638;SDS011;1329;51.384;7.122;2022-07-19T14:01:00;3.35;;;1.67;;
2638;SDS011;1329;51.384;7.122;2022-07-19T14:03:37;1.50;;;1.40;;
2638;SDS011;1329;51.384;7.122;2022-07-19T14:06:25;1.75;;;1.52;;
2638;SDS011;1329;51.384;7.122;2022-07-19T14:09:25;1.73;;;1.27;;
2638;SDS011;1329;51.384;7.122;2022-07-19T14:12:24;1.60;;;1.40;;
2638;SDS011;1329;51.384;7.122;2022-07-19T14:18:26;1.70;;;1.20;;
2638;SDS011;1329;51.384;7.122;2022-07-19T14:21:53;1.38;;;1.23;;
2638;SDS011;1329;51.384;7.122;2022-07-19T14:25:12;1.13;;;1.08;;
2638;SDS011;1329;51.384;7.122;2022-07-19T14:28:40;1.40;;;1.30;;
2638;SDS011;1329;51.384;7.122;2022-07-19T14:32:01;2.00;;;1.17;;
2638;SDS011;1329;51.384;7.122;2022-07-19T14:34:52;2.15;;;1.27;;
2638;SDS011;1329;51.384;7.122;2022-07-19T14:37:45;1.70;;;1.10;;
2638;SDS011;1329;51.384;7.122;2022-07-19T14:40:49;1.50;;;1.20;;
2638;SDS011;1329;51.384;7.122;2022-07-19T14:44:19;1.52;;;1.10;;
2638;SDS011;1329;51.384;7.122;2022-07-19T14:47:37;1.83;;;1.08;;
2638;SDS011;1329;51.384;7.122;2022-07-19T14:51:07;1.30;;;1.20;;
2638;SDS011;1329;51.384;7.122;2022-07-19T14:57:58;2.30;;;1.33;;
2638;SDS011;1329;51.384;7.122;2022-07-19T15:04:31;2.65;;;1.30;;
2638;SDS011;1329;51.384;7.122;2022-07-19T15:07:30;1.45;;;1.20;;
2638;SDS011;1329;51.384;7.122;2022-07-19T15:10:27;2.40;;;1.20;;
2638;SDS011;1329;51.384;7.122;2022-07-19T15:16:55;2.53;;;1.30;;
2638;SDS011;1329;51.384;7.122;2022-07-19T15:19:55;1.40;;;1.30;;
2638;SDS011;1329;51.384;7.122;2022-07-19T15:22:52;1.42;;;1.30;;
2638;SDS011;1329;51.384;7.122;2022-07-19T15:29:08;1.90;;;1.42;;
2638;SDS011;1329;51.384;7.122;2022-07-19T15:32:01;1.80;;;1.33;;
2638;SDS011;1329;51.384;7.122;2022-07-19T15:38:08;1.45;;;1.35;;
2638;SDS011;1329;51.384;7.122;2022-07-19T15:41:12;1.50;;;1.40;;
2638;SDS011;1329;51.384;7.122;2022-07-19T15:44:34;1.58;;;1.48;;
2638;SDS011;1329;51.384;7.122;2022-07-19T15:47:21;1.88;;;1.50;;
2638;SDS011;1329;51.384;7.122;2022-07-19T15:50:26;1.40;;;1.30;;
2638;SDS011;1329;51.384;7.122;2022-07-19T15:53:33;2.55;;;1.50;;
2638;SDS011;1329;51.384;7.122;2022-07-19T15:56:44;1.52;;;1.42;;
2638;SDS011;1329;51.384;7.122;2022-07-19T15:59:51;1.55;;;1.45;;
2638;SDS011;1329;51.384;7.122;2022-07-19T16:02:57;2.15;;;1.42;;
2638;SDS011;1329;51.384;7.122;2022-07-19T16:06:14;1.80;;;1.67;;
2638;SDS011;1329;51.384;7.122;2022-07-19T16:09:07;1.67;;;1.42;;
2638;SDS011;1329;51.384;7.122;2022-07-19T16:12:14;1.60;;;1.50;;
2638;SDS011;1329;51.384;7.122;2022-07-19T16:18:36;2.10;;;1.60;;
2638;SDS011;1329;51.384;7.122;2022-07-19T16:21:42;1.67;;;1.40;;
2638;SDS011;1329;51.384;7.122;2022-07-19T16:27:51;2.30;;;1.73;;
2638;SDS011;1329;51.384;7.122;2022-07-19T16:30:52;2.42;;;1.60;;
2638;SDS011;1329;51.384;7.122;2022-07-19T16:34:00;2.20;;;1.80;;
2638;SDS011;1329;51.384;7.122;2022-07-19T16:37:51;1.83;;;1.65;;
2638;SDS011;1329;51.384;7.122;2022-07-19T16:40:59;1.65;;;1.42;;
2638;SDS011;1329;51.384;7.122;2022-07-19T16:44:10;2.08;;;1.88;;
2638;SDS011;1329;51.384;7.122;2022-07-19T16:50:47;2.00;;;1.60;;
2638;SDS011;1329;51.384;7.122;2022-07-19T16:54:22;2.15;;;1.58;;
2638;SDS011;1329;51.384;7.122;2022-07-19T16:57:45;1.67;;;1.58;;
2638;SDS011;1329;51.384;7.122;2022-07-19T17:00:50;1.67;;;1.58;;
2638;SDS011;1329;51.384;7.122;2022-07-19T17:10:29;1.70;;;1.60;;
2638;SDS011;1329;51.384;7.122;2022-07-19T17:13:46;1.58;;;1.48;;
2638;SDS011;1329;51.384;7.122;2022-07-19T17:16:51;2.85;;;1.50;;
2638;SDS011;1329;51.384;7.122;2022-07-19T17:22:48;2.00;;;1.75;;
2638;SDS011;1329;51.384;7.122;2022-07-19T17:25:42;1.60;;;1.50;;
2638;SDS011;1329;51.384;7.122;2022-07-19T17:28:41;1.70;;;1.55;;
2638;SDS011;1329;51.384;7.122;2022-07-19T17:31:37;2.03;;;1.70;;
2638;SDS011;1329;51.384;7.122;2022-07-19T17:34:44;3.35;;;1.48;;
2638;SDS011;1329;51.384;7.122;2022-07-19T17:38:01;1.50;;;1.40;;
2638;SDS011;1329;51.384;7.122;2022-07-19T17:41:14;5.15;;;1.55;;
2638;SDS011;1329;51.384;7.122;2022-07-19T17:44:24;2.42;;;1.60;;
2638;SDS011;1329;51.384;7.122;2022-07-19T17:47:20;1.42;;;1.33;;
2638;SDS011;1329;51.384;7.122;2022-07-19T17:50:35;2.03;;;1.25;;
2638;SDS011;1329;51.384;7.122;2022-07-19T17:56:54;1.83;;;1.50;;
2638;SDS011;1329;51.384;7.122;2022-07-19T18:00:00;1.70;;;1.60;;
2638;SDS011;1329;51.384;7.122;2022-07-19T18:02:57;1.70;;;1.60;;
2638;SDS011;1329;51.384;7.122;2022-07-19T18:06:07;1.58;;;1.48;;
2638;SDS011;1329;51.384;7.122;2022-07-19T18:09:35;2.60;;;1.45;;
2638;SDS011;1329;51.384;7.122;2022-07-19T18:12:26;2.55;;;1.75;;
2638;SDS011;1329;51.384;7.122;2022-07-19T18:15:30;1.60;;;1.50;;
2638;SDS011;1329;51.384;7.122;2022-07-19T18:18:25;1.83;;;1.60;;
2638;SDS011;1329;51.384;7.122;2022-07-19T18:21:42;1.80;;;1.60;;
2638;SDS011;1329;51.384;7.122;2022-07-19T18:24:45;2.35;;;1.40;;
2638;SDS011;1329;51.384;7.122;2022-07-19T18:27:32;1.70;;;1.60;;